Time;durP1;ratioP1;P1;durP2;ratioP2;P2;SDS_P1;SDS_P2;PMS_P1;PMS_P2;Temp;Humidity;BMP_temperature;BMP_pressure;BME280_temperature;BME280_humidity;BME280_pressure;Samples;Min_cycle;Max_cycle;Signal;HPM_P1;HPM_P2
2021/08/18 00:00:49;;;;;;;6.83;4.28;;;;;;;10.61;75.23;97157.27;1668197;85;26177;-86
2021/08/18 00:03:16;;;;;;;6.72;4.47;;;;;;;10.64;75.19;97164.91;1698497;83;25542;-86
2021/08/18 00:05:44;;;;;;;5.42;4.37;;;;;;;10.61;75.10;97156.45;1691718;82;25672;-86
2021/08/18 00:08:12;;;;;;;9.45;4.58;;;;;;;10.57;75.04;97150.64;1700913;83;25378;-85
2021/08/18 00:10:44;;;;;;;6.92;3.60;;;;;;;10.58;75.13;97137.98;1651372;83;27913;-84
2021/08/18 00:13:11;;;;;;;7.65;4.58;;;;;;;10.60;75.18;97143.99;1699833;84;25461;-85
2021/08/18 00:15:40;;;;;;;6.95;4.33;;;;;;;10.59;75.24;97148.56;1681651;83;25638;-86
2021/08/18 00:18:07;;;;;;;6.30;4.25;;;;;;;10.59;75.26;97155.31;1699154;84;25675;-86
2021/08/18 00:20:35;;;;;;;15.93;5.58;;;;;;;10.52;75.24;97161.77;1700905;82;25437;-87
2021/08/18 00:23:02;;;;;;;8.95;4.60;;;;;;;10.53;75.45;97167.48;1699783;83;27881;-87
2021/08/18 00:25:28;;;;;;;11.90;4.85;;;;;;;10.46;75.31;97163.48;1700310;82;25486;-86
2021/08/18 00:27:56;;;;;;;7.03;4.40;;;;;;;10.45;75.58;97151.86;1680591;83;25466;-86
2021/08/18 00:30:23;;;;;;;6.60;4.15;;;;;;;10.48;75.66;97155.17;1705299;82;25663;-87
2021/08/18 00:32:51;;;;;;;8.20;4.22;;;;;;;10.52;75.71;97168.00;1701006;84;25527;-87
2021/08/18 00:35:17;;;;;;;8.63;4.75;;;;;;;10.53;75.68;97176.92;1669469;84;27356;-87
2021/08/18 00:37:44;;;;;;;8.55;4.85;;;;;;;10.55;75.73;97173.48;1698555;83;25502;-87
2021/08/18 00:40:12;;;;;;;8.95;4.33;;;;;;;10.59;75.78;97172.02;1698904;82;25444;-86
2021/08/18 00:42:40;;;;;;;6.92;4.05;;;;;;;10.61;75.80;97172.64;1710145;82;26432;-86
2021/08/18 00:45:10;;;;;;;7.53;3.77;;;;;;;10.62;75.75;97162.15;1700883;82;25184;-87
2021/08/18 00:47:48;;;;;;;6.60;4.33;;;;;;;10.64;75.70;97158.69;1700107;82;26042;-87
2021/08/18 00:50:18;;;;;;;7.90;4.22;;;;;;;10.63;75.72;97161.08;1700812;83;25611;-86
2021/08/18 00:52:46;;;;;;;6.08;4.15;;;;;;;10.56;75.71;97152.20;1701028;83;25493;-87
2021/08/18 00:55:19;;;;;;;5.70;4.08;;;;;;;10.43;75.74;97148.55;1700970;83;25307;-86
2021/08/18 00:57:49;;;;;;;8.73;4.33;;;;;;;10.36;75.91;97155.86;1701997;83;25375;-88
2021/08/18 01:00:18;;;;;;;6.12;4.33;;;;;;;10.32;76.11;97158.67;1704988;82;27420;-86
2021/08/18 01:02:50;;;;;;;9.45;4.25;;;;;;;10.26;76.19;97152.81;1691504;83;26109;-87
2021/08/18 01:05:25;;;;;;;7.97;3.80;;;;;;;10.22;76.33;97147.53;1669024;84;25569;-86
2021/08/18 01:07:53;;;;;;;9.93;4.35;;;;;;;10.22;76.52;97143.48;1669041;84;25636;-86
2021/08/18 01:10:28;;;;;;;6.20;3.95;;;;;;;10.21;76.56;97149.91;1671322;84;25634;-86
2021/08/18 01:12:59;;;;;;;7.03;4.58;;;;;;;10.23;76.75;97161.33;1700857;82;27423;-87
2021/08/18 01:15:30;;;;;;;7.42;4.10;;;;;;;10.25;76.84;97153.02;1671256;84;25740;-85
2021/08/18 01:18:00;;;;;;;8.38;4.33;;;;;;;10.27;76.85;97150.39;1698886;82;25441;-85
2021/08/18 01:20:40;;;;;;;6.10;4.58;;;;;;;10.34;76.96;97148.50;1670406;84;25503;-86
2021/08/18 01:23:11;;;;;;;6.58;4.45;;;;;;;10.39;76.98;97143.78;1697854;83;25710;-87
2021/08/18 01:25:41;;;;;;;7.15;4.28;;;;;;;10.46;76.88;97146.77;1682147;84;27384;-86
2021/08/18 01:28:12;;;;;;;8.10;4.65;;;;;;;10.54;76.77;97128.65;1700820;82;25538;-85
2021/08/18 01:30:40;;;;;;;8.33;4.53;;;;;;;10.54;76.83;97121.91;1669199;84;25509;-88
2021/08/18 01:33:16;;;;;;;10.68;4.05;;;;;;;10.54;76.88;97124.60;1670150;84;25821;-92
2021/08/18 01:35:49;;;;;;;7.20;4.50;;;;;;;10.51;76.85;97120.98;1701050;84;25499;-86
2021/08/18 01:38:19;;;;;;;5.37;3.80;;;;;;;10.50;76.97;97131.50;1701006;82;27403;-86
2021/08/18 01:40:51;;;;;;;5.78;3.77;;;;;;;10.46;77.00;97133.80;1721202;83;25241;-88
2021/08/18 01:43:18;;;;;;;9.93;4.08;;;;;;;10.43;77.08;97131.00;1701412;82;25506;-86
2021/08/18 01:45:47;;;;;;;7.85;3.80;;;;;;;10.43;77.13;97122.91;1703079;83;25865;-85
2021/08/18 01:48:20;;;;;;;4.90;3.80;;;;;;;10.46;77.23;97131.93;1704239;83;25545;-85
2021/08/18 01:50:51;;;;;;;4.30;3.37;;;;;;;10.55;77.31;97137.05;1704415;83;27368;-85
2021/08/18 01:53:32;;;;;;;7.55;3.87;;;;;;;10.60;77.30;97138.07;1718612;82;25197;-85
2021/08/18 01:56:02;;;;;;;5.92;3.47;;;;;;;10.59;77.20;97131.02;1671053;84;25550;-86
2021/08/18 01:58:30;;;;;;;4.95;3.45;;;;;;;10.59;77.25;97131.53;1669663;85;25721;-86
2021/08/18 02:00:57;;;;;;;7.08;3.35;;;;;;;10.65;77.27;97122.03;1671171;85;25476;-86
2021/08/18 02:03:24;;;;;;;5.53;3.77;;;;;;;10.69;77.20;97126.48;1667152;85;27761;-85
2021/08/18 02:05:52;;;;;;;6.30;3.77;;;;;;;10.71;77.17;97128.44;1666205;84;25555;-86
2021/08/18 02:08:21;;;;;;;6.17;4.10;;;;;;;10.66;77.13;97130.95;1669163;84;25572;-85
2021/08/18 02:10:48;;;;;;;6.45;3.58;;;;;;;10.64;77.21;97131.69;1668651;84;25704;-86
2021/08/18 02:13:16;;;;;;;5.10;3.80;;;;;;;10.67;77.29;97128.56;1668780;84;25464;-86
2021/08/18 02:15:43;;;;;;;4.78;3.52;;;;;;;10.70;77.32;97126.27;1670408;84;27462;-87
2021/08/18 02:18:14;;;;;;;7.60;3.80;;;;;;;10.74;77.29;97122.61;1670765;84;25691;-87
2021/08/18 02:20:43;;;;;;;5.55;3.80;;;;;;;10.60;77.34;97097.59;1670035;85;25528;-86
2021/08/18 02:23:11;;;;;;;5.03;3.55;;;;;;;10.75;77.35;97116.97;1666980;85;25671;-87
2021/08/18 02:25:38;;;;;;;4.90;3.50;;;;;;;10.74;77.42;97111.30;1667514;85;25432;-87
2021/08/18 02:28:07;;;;;;;5.70;3.83;;;;;;;10.76;77.37;97110.52;1667250;85;27349;-87
2021/08/18 02:30:34;;;;;;;5.90;3.50;;;;;;;10.78;77.34;97118.41;1668509;84;25725;-87
2021/08/18 02:33:04;;;;;;;5.25;4.12;;;;;;;10.79;77.34;97119.55;1646802;85;25501;-86
2021/08/18 02:35:32;;;;;;;4.60;3.95;;;;;;;10.80;77.27;97127.95;1670656;84;25779;-87
2021/08/18 02:38:01;;;;;;;7.40;3.30;;;;;;;10.82;77.36;97138.02;1667226;85;25521;-87
2021/08/18 02:40:32;;;;;;;6.58;3.72;;;;;;;10.83;77.35;97146.42;1668256;84;27363;-87
2021/08/18 02:43:00;;;;;;;5.85;3.90;;;;;;;10.82;77.41;97150.69;1655465;85;25489;-87
2021/08/18 02:45:30;;;;;;;4.95;3.37;;;;;;;10.84;77.48;97148.59;1668272;84;26088;-87
2021/08/18 02:48:02;;;;;;;5.85;3.70;;;;;;;10.85;77.47;97163.75;1662667;84;25693;-88
2021/08/18 02:50:31;;;;;;;6.67;3.98;;;;;;;10.69;77.42;97136.75;1659706;86;26036;-87
2021/08/18 02:52:58;;;;;;;12.03;4.12;;;;;;;10.87;77.49;97157.59;1690184;84;28016;-88
2021/08/18 02:55:25;;;;;;;4.47;3.55;;;;;;;10.87;77.50;97158.94;1666963;84;25500;-87
2021/08/18 02:57:52;;;;;;;7.12;4.22;;;;;;;10.88;77.53;97156.54;1663341;85;25475;-86
2021/08/18 03:00:19;;;;;;;7.47;3.85;;;;;;;10.91;77.42;97153.41;1690990;83;25647;-87
2021/08/18 03:02:50;;;;;;;7.45;3.37;;;;;;;10.91;77.41;97156.11;1689872;83;25509;-86
2021/08/18 03:05:18;;;;;;;8.93;3.30;;;;;;;10.86;77.42;97157.31;1696535;84;27448;-87
2021/08/18 03:07:45;;;;;;;6.80;3.80;;;;;;;10.88;77.50;97164.64;1669263;83;25598;-87
2021/08/18 03:10:12;;;;;;;8.35;3.60;;;;;;;10.86;77.48;97157.83;1670756;84;25944;-87
2021/08/18 03:12:38;;;;;;;6.20;3.60;;;;;;;10.84;77.60;97158.05;1696152;83;25868;-86
2021/08/18 03:15:07;;;;;;;7.20;3.52;;;;;;;10.88;77.72;97152.48;1665067;84;25497;-87
2021/08/18 03:17:37;;;;;;;7.95;3.50;;;;;;;10.89;77.80;97147.40;1693544;83;27645;-87
2021/08/18 03:20:10;;;;;;;7.37;4.08;;;;;;;10.90;77.82;97150.41;1696449;83;25602;-87
2021/08/18 03:22:37;;;;;;;7.72;4.25;;;;;;;10.92;77.82;97146.97;1670412;84;25552;-87
2021/08/18 03:25:14;;;;;;;8.30;3.62;;;;;;;10.90;77.74;97139.60;1668923;83;26287;-86
2021/08/18 03:27:39;;;;;;;4.65;3.40;;;;;;;10.92;77.82;97144.27;1695692;83;25529;-87
2021/08/18 03:30:12;;;;;;;10.25;3.72;;;;;;;10.96;77.87;97150.06;1697440;83;27956;-88
2021/08/18 03:32:39;;;;;;;9.13;3.90;;;;;;;10.98;77.88;97141.23;1702958;83;25513;-87
2021/08/18 03:35:08;;;;;;;6.55;3.98;;;;;;;10.92;77.75;97138.86;1665212;84;25569;-86
2021/08/18 03:37:42;;;;;;;5.90;3.87;;;;;;;10.91;77.80;97139.91;1693104;83;25704;-84
2021/08/18 03:40:09;;;;;;;5.75;3.40;;;;;;;10.95;77.85;97149.23;1693738;83;25504;-86
2021/08/18 03:42:36;;;;;;;8.28;3.70;;;;;;;10.97;77.78;97145.80;1670239;84;28113;-87
2021/08/18 03:45:04;;;;;;;4.65;3.58;;;;;;;10.97;77.81;97148.50;1642407;84;26291;-85
2021/08/18 03:47:33;;;;;;;7.20;3.60;;;;;;;11.00;77.82;97150.73;1696715;83;25357;-87
2021/08/18 03:50:01;;;;;;;5.35;3.67;;;;;;;11.01;77.75;97149.69;1691869;84;26220;-87
2021/08/18 03:52:28;;;;;;;5.72;3.58;;;;;;;10.95;77.69;97153.29;1709941;83;25445;-87
2021/08/18 03:54:55;;;;;;;8.73;3.90;;;;;;;10.96;77.78;97154.94;1694888;83;27345;-87
2021/08/18 03:57:21;;;;;;;5.12;3.58;;;;;;;11.00;77.83;97154.78;1716323;83;25452;-86
2021/08/18 03:59:48;;;;;;;6.60;3.92;;;;;;;11.00;77.90;97156.14;1707111;83;25540;-88
2021/08/18 04:02:17;;;;;;;8.80;3.90;;;;;;;10.96;77.80;97152.24;1691587;83;25769;-87
2021/08/18 04:04:47;;;;;;;6.37;3.40;;;;;;;10.99;77.99;97151.78;1677434;84;25503;-87
2021/08/18 04:07:14;;;;;;;5.30;4.30;;;;;;;11.04;78.01;97153.83;1666156;84;27840;-87
2021/08/18 04:09:40;;;;;;;7.42;3.80;;;;;;;11.08;78.07;97162.64;1690830;83;25532;-87
2021/08/18 04:12:08;;;;;;;8.08;4.03;;;;;;;11.12;78.13;97163.83;1691022;83;25699;-88
2021/08/18 04:14:34;;;;;;;8.40;4.53;;;;;;;11.11;78.10;97162.69;1667157;84;25750;-87
2021/08/18 04:17:01;;;;;;;8.45;5.10;;;;;;;11.07;78.08;97151.53;1690925;83;26020;-87
2021/08/18 04:19:28;;;;;;;8.35;4.92;;;;;;;11.08;78.09;97153.19;1695389;84;27410;-88
2021/08/18 04:21:55;;;;;;;11.08;5.62;;;;;;;11.13;78.13;97151.16;1691673;83;25550;-86
2021/08/18 04:24:22;;;;;;;8.80;5.40;;;;;;;11.18;78.13;97145.41;1690871;83;25362;-86
2021/08/18 04:26:48;;;;;;;12.35;4.47;;;;;;;11.24;78.15;97148.25;1665409;83;26128;-87
2021/08/18 04:29:15;;;;;;;10.72;5.15;;;;;;;11.28;78.10;97157.05;1692178;83;25537;-86
2021/08/18 04:31:42;;;;;;;10.82;4.95;;;;;;;11.28;78.03;97146.24;1691233;83;27417;-87
2021/08/18 04:34:10;;;;;;;11.25;4.85;;;;;;;11.30;78.02;97153.61;1709821;83;25466;-87
2021/08/18 04:36:37;;;;;;;10.00;4.75;;;;;;;11.39;78.14;97160.38;1693650;83;25425;-87
2021/08/18 04:39:04;;;;;;;9.30;5.20;;;;;;;11.47;77.96;97157.94;1691381;83;26067;-86
2021/08/18 04:41:32;;;;;;;7.58;4.72;;;;;;;11.51;77.88;97153.19;1665083;84;25433;-87
2021/08/18 04:43:59;;;;;;;11.97;4.55;;;;;;;11.58;77.87;97153.14;1666414;84;27404;-86
2021/08/18 04:46:28;;;;;;;9.88;5.15;;;;;;;11.62;77.89;97147.56;1660915;85;25628;-87
2021/08/18 04:48:55;;;;;;;7.80;4.78;;;;;;;11.67;77.91;97145.55;1674699;84;25535;-87
2021/08/18 04:51:26;;;;;;;11.38;4.65;;;;;;;11.72;77.80;97144.33;1651743;84;26166;-89
2021/08/18 04:53:52;;;;;;;11.45;5.08;;;;;;;11.76;77.87;97147.77;1674415;84;25585;-86
2021/08/18 04:56:18;;;;;;;13.38;5.20;;;;;;;11.84;77.92;97146.09;1682280;84;27102;-87
2021/08/18 04:58:45;;;;;;;13.35;5.37;;;;;;;11.93;77.93;97154.76;1689613;83;25342;-87
2021/08/18 05:01:16;;;;;;;10.03;5.60;;;;;;;12.00;77.87;97151.96;1682330;84;25482;-87
2021/08/18 05:03:41;;;;;;;15.23;5.90;;;;;;;12.05;77.79;97149.42;1673715;85;26197;-87
2021/08/18 05:06:08;;;;;;;12.53;5.28;;;;;;;12.10;77.83;97148.19;1701579;83;25227;-88
2021/08/18 05:08:34;;;;;;;9.65;5.50;;;;;;;12.16;77.85;97149.48;1675160;84;27397;-87
2021/08/18 05:11:04;;;;;;;12.47;5.22;;;;;;;12.23;77.81;97157.50;1687057;84;26014;-87
2021/08/18 05:13:33;;;;;;;11.05;4.87;;;;;;;12.28;77.70;97165.77;1679680;84;25796;-87
2021/08/18 05:16:00;;;;;;;8.30;4.95;;;;;;;12.32;77.47;97167.51;1686186;84;25654;-87
2021/08/18 05:18:30;;;;;;;9.85;5.15;;;;;;;12.33;77.32;97160.48;1677832;84;25578;-88
2021/08/18 05:20:58;;;;;;;9.63;5.00;;;;;;;12.34;77.24;97158.08;1691445;83;27913;-89
2021/08/18 05:23:29;;;;;;;8.30;5.33;;;;;;;12.28;77.31;97148.70;1688971;83;25581;-87
2021/08/18 05:25:55;;;;;;;15.55;5.42;;;;;;;12.32;77.37;97153.42;1683957;84;25530;-88
2021/08/18 05:28:24;;;;;;;9.40;5.03;;;;;;;12.33;77.53;97153.72;1674902;84;25789;-87
2021/08/18 05:30:52;;;;;;;8.75;4.72;;;;;;;12.38;77.73;97154.40;1686140;84;25557;-87
2021/08/18 05:33:19;;;;;;;7.72;4.58;;;;;;;12.36;77.69;97151.92;1686074;85;27471;-86
2021/08/18 05:35:46;;;;;;;7.40;4.72;;;;;;;12.36;77.54;97160.03;1673582;84;25681;-87
2021/08/18 05:38:13;;;;;;;7.50;5.20;;;;;;;12.41;77.53;97161.55;1674671;84;25258;-86
2021/08/18 05:40:41;;;;;;;11.00;5.42;;;;;;;12.45;77.31;97170.84;1685065;84;25644;-85
2021/08/18 05:43:13;;;;;;;8.83;5.03;;;;;;;12.42;77.06;97169.97;1679793;84;25497;-87
2021/08/18 05:45:39;;;;;;;;;;;;;;;12.44;77.28;97167.83;1681346;82;28391;-86
2021/08/18 05:48:06;;;;;;;10.32;5.45;;;;;;;12.48;77.54;97164.98;1678088;84;25539;-86
2021/08/18 05:50:33;;;;;;;11.30;5.55;;;;;;;12.52;77.62;97174.83;1688464;84;25261;-85
2021/08/18 05:53:01;;;;;;;9.48;4.67;;;;;;;12.57;77.52;97171.71;1701169;82;26153;-86
2021/08/18 05:55:28;;;;;;;10.63;5.60;;;;;;;12.63;77.39;97176.75;1701538;83;25517;-86
2021/08/18 05:57:55;;;;;;;8.23;5.42;;;;;;;12.53;77.24;97151.59;1710942;82;27348;-87
2021/08/18 06:00:25;;;;;;;9.28;5.10;;;;;;;12.73;77.17;97173.48;1697880;83;26001;-87
2021/08/18 06:02:51;;;;;;;15.55;5.53;;;;;;;12.77;77.22;97174.69;1700009;82;25449;-87
2021/08/18 06:05:21;;;;;;;9.98;5.42;;;;;;;12.81;77.12;97169.91;1709704;83;25520;-87
2021/08/18 06:07:47;;;;;;;16.48;5.83;;;;;;;12.85;77.01;97165.69;1703647;83;26217;-86
2021/08/18 06:10:14;;;;;;;9.90;5.75;;;;;;;12.90;77.12;97163.66;1699850;82;27353;-87
2021/08/18 06:12:41;;;;;;;9.88;5.37;;;;;;;12.97;77.33;97165.72;1698057;83;25404;-87
2021/08/18 06:15:10;;;;;;;8.48;4.65;;;;;;;13.02;77.42;97158.27;1700741;82;25323;-88
2021/08/18 06:17:37;;;;;;;11.22;5.15;;;;;;;13.08;77.55;97155.44;1701070;82;25771;-88
2021/08/18 06:20:07;;;;;;;14.75;5.55;;;;;;;13.17;77.66;97155.94;1690347;82;25488;-88
2021/08/18 06:22:36;;;;;;;9.60;5.53;;;;;;;13.25;77.53;97161.87;1668614;84;27854;-87
2021/08/18 06:25:03;;;;;;;10.30;5.37;;;;;;;13.33;77.30;97156.09;1720053;82;25623;-88
2021/08/18 06:27:30;;;;;;;10.88;6.15;;;;;;;13.39;76.96;97152.98;1699724;82;25555;-88
2021/08/18 06:29:58;;;;;;;10.68;6.03;;;;;;;13.44;76.99;97153.61;1700146;83;25655;-88
2021/08/18 06:32:24;;;;;;;12.00;6.62;;;;;;;13.49;77.02;97153.74;1701133;83;25453;-88
2021/08/18 06:34:53;;;;;;;8.73;5.70;;;;;;;13.54;77.00;97153.84;1699203;82;27362;-83
2021/08/18 06:37:21;;;;;;;9.95;5.37;;;;;;;13.56;76.67;97155.80;1671293;84;25520;-88
2021/08/18 06:39:52;;;;;;;10.53;5.87;;;;;;;13.57;76.66;97147.95;1701305;84;25173;-88
2021/08/18 06:42:21;;;;;;;7.92;5.12;;;;;;;13.62;76.72;97156.22;1676756;83;25203;-87
2021/08/18 06:44:51;;;;;;;8.93;4.90;;;;;;;13.67;76.64;97154.96;1714144;81;25221;-87
2021/08/18 06:47:18;;;;;;;11.53;5.60;;;;;;;13.72;76.63;97156.98;1681383;84;27356;-88
2021/08/18 06:49:48;;;;;;;11.05;4.55;;;;;;;13.73;76.31;97154.03;1699661;84;25489;-90
2021/08/18 06:52:20;;;;;;;6.55;4.97;;;;;;;13.69;75.87;97153.67;1714254;82;25538;-88
2021/08/18 06:54:48;;;;;;;9.70;4.72;;;;;;;13.71;75.95;97152.08;1699080;83;25707;-88
2021/08/18 06:57:15;;;;;;;7.75;4.55;;;;;;;13.72;75.95;97151.02;1693762;82;25481;-88
2021/08/18 06:59:42;;;;;;;11.28;5.45;;;;;;;13.72;75.91;97155.09;1699970;84;27361;-87
2021/08/18 07:02:12;;;;;;;9.73;4.65;;;;;;;13.75;75.69;97149.20;1718051;82;25576;-87
2021/08/18 07:04:38;;;;;;;9.33;5.10;;;;;;;13.80;75.78;97153.36;1660086;84;25477;-88
2021/08/18 07:07:05;;;;;;;7.33;4.53;;;;;;;13.81;75.50;97150.95;1670340;84;25716;-88
2021/08/18 07:09:34;;;;;;;9.55;5.03;;;;;;;13.83;75.24;97153.42;1701338;84;25545;-88
2021/08/18 07:12:06;;;;;;;9.55;4.97;;;;;;;13.86;75.36;97149.71;1700340;83;27369;-87
2021/08/18 07:14:31;;;;;;;9.28;4.85;;;;;;;13.91;75.40;97153.05;1680865;83;25513;-88
2021/08/18 07:16:58;;;;;;;12.47;5.47;;;;;;;13.93;75.50;97151.75;1697438;84;25883;-88
2021/08/18 07:19:25;;;;;;;7.55;4.37;;;;;;;13.98;75.42;97150.52;1702734;82;25756;-87
2021/08/18 07:21:51;;;;;;;10.10;5.78;;;;;;;13.99;75.46;97152.17;1679928;84;26391;-87
2021/08/18 07:24:24;;;;;;;9.15;5.55;;;;;;;14.02;75.47;97147.59;1626129;85;25638;-89
2021/08/18 07:26:52;;;;;;;7.00;5.00;;;;;;;14.06;75.46;97152.84;1711510;82;25471;-88
2021/08/18 07:29:24;;;;;;;9.73;5.15;;;;;;;14.06;75.00;97153.38;1709832;83;25585;-88
2021/08/18 07:31:51;;;;;;;8.60;5.17;;;;;;;14.09;74.87;97156.16;1680573;82;26563;-87
2021/08/18 07:34:19;;;;;;;7.50;4.60;;;;;;;14.12;74.88;97157.04;1701111;83;25956;-87
2021/08/18 07:36:46;;;;;;;8.70;5.17;;;;;;;14.17;75.05;97156.59;1700768;83;27901;-86
2021/08/18 07:39:13;;;;;;;9.68;5.28;;;;;;;14.19;74.88;97159.90;1707634;82;25471;-87
2021/08/18 07:41:40;;;;;;;6.40;4.60;;;;;;;14.08;74.69;97133.62;1725871;81;25518;-88
2021/08/18 07:44:07;;;;;;;7.17;4.65;;;;;;;14.27;74.43;97155.44;1702426;82;26219;-88
2021/08/18 07:46:35;;;;;;;7.10;4.45;;;;;;;14.34;74.00;97165.65;1698631;84;25869;-88
2021/08/18 07:49:04;;;;;;;9.08;4.90;;;;;;;14.39;73.75;97152.19;1700245;82;27381;-87
2021/08/18 07:51:34;;;;;;;12.30;5.15;;;;;;;14.44;73.24;97150.65;1678845;84;26057;-86
2021/08/18 07:54:03;;;;;;;8.60;4.80;;;;;;;14.49;73.13;97153.48;1713236;82;26033;-85
2021/08/18 07:56:32;;;;;;;9.25;4.58;;;;;;;14.56;73.16;97148.18;1713692;82;25640;-85
2021/08/18 07:59:00;;;;;;;10.48;5.15;;;;;;;14.66;73.09;97147.01;1709259;82;25162;-86
2021/08/18 08:01:27;;;;;;;8.53;4.95;;;;;;;14.76;72.73;97144.47;1668936;84;27364;-86
2021/08/18 08:03:53;;;;;;;9.73;4.97;;;;;;;14.91;72.45;97144.45;1669882;84;25655;-85
2021/08/18 08:06:21;;;;;;;7.15;4.58;;;;;;;15.17;72.50;97139.75;1671786;82;37775;-86
2021/08/18 08:08:48;;;;;;;7.50;5.22;;;;;;;15.51;72.33;97135.11;1713104;82;25710;-88
2021/08/18 08:11:15;;;;;;;7.65;5.08;;;;;;;15.87;71.38;97135.13;1684728;84;25170;-87
2021/08/18 08:13:44;;;;;;;8.85;4.97;;;;;;;16.16;70.81;97132.52;1700612;82;27471;-86
2021/08/18 08:16:11;;;;;;;9.80;4.17;;;;;;;16.43;70.31;97138.53;1700147;83;25952;-86
2021/08/18 08:18:40;;;;;;;7.58;4.85;;;;;;;16.75;70.06;97131.31;1701038;82;25589;-86
2021/08/18 08:21:09;;;;;;;10.65;5.15;;;;;;;17.11;69.53;97123.47;1700588;82;26189;-86
2021/08/18 08:23:35;;;;;;;11.55;4.97;;;;;;;17.51;68.88;97121.61;1709678;82;25498;-86
2021/08/18 08:26:04;;;;;;;7.83;5.10;;;;;;;17.96;68.52;97123.82;1715270;82;27344;-85
2021/08/18 08:28:31;;;;;;;8.85;5.08;;;;;;;18.45;68.32;97127.05;1673399;83;25625;-85
2021/08/18 08:31:00;;;;;;;7.90;5.03;;;;;;;18.85;67.31;97101.72;1699303;83;25611;-87
2021/08/18 08:33:27;;;;;;;7.17;4.45;;;;;;;19.47;66.71;97115.70;1697507;84;25647;-86
2021/08/18 08:35:53;;;;;;;7.15;5.15;;;;;;;19.91;65.96;97113.77;1700721;82;25951;-87
2021/08/18 08:38:20;;;;;;;11.43;4.92;;;;;;;20.14;65.21;97108.48;1696729;82;27336;-86
2021/08/18 08:40:48;;;;;;;7.10;4.92;;;;;;;20.52;64.70;97106.16;1700361;83;25521;-85
2021/08/18 08:43:22;;;;;;;10.08;5.12;;;;;;;21.00;63.57;97105.86;1698972;84;25564;-88
2021/08/18 08:45:48;;;;;;;5.90;4.92;;;;;;;21.36;63.13;97100.95;1699857;82;25946;-88
2021/08/18 08:48:30;;;;;;;8.65;4.87;;;;;;;21.75;62.33;97102.20;1690045;84;26042;-85
2021/08/18 08:50:53;;;;;;;6.40;4.72;;;;;;;21.98;60.98;97103.34;1666052;84;26024;-86
2021/08/18 08:53:24;;;;;;;6.60;5.40;;;;;;;22.31;60.14;97098.88;1688891;83;25432;-89
2021/08/18 08:55:54;;;;;;;7.28;5.60;;;;;;;22.62;60.13;97091.86;1670978;84;25899;-86
2021/08/18 08:58:28;;;;;;;9.40;6.10;;;;;;;22.99;58.24;97099.34;1674750;84;25842;-86
2021/08/18 09:00:55;;;;;;;8.90;5.62;;;;;;;23.12;57.08;97067.48;1675748;84;26211;-86
2021/08/18 09:03:25;;;;;;;8.10;5.78;;;;;;;23.29;56.58;97078.77;1677170;84;27362;-86
2021/08/18 09:06:04;;;;;;;11.18;6.10;;;;;;;23.52;55.97;97078.41;1679043;84;25482;-87
2021/08/18 09:08:48;;;;;;;11.35;6.12;;;;;;;23.76;54.88;97065.04;1672036;84;25525;-87
2021/08/18 09:11:21;;;;;;;7.40;6.12;;;;;;;23.79;54.47;97067.19;1674402;84;25673;-86
2021/08/18 09:13:53;;;;;;;10.32;6.53;;;;;;;23.69;54.32;97064.86;1669710;84;25513;-87
2021/08/18 09:16:38;;;;;;;11.00;6.05;;;;;;;23.51;53.58;97061.63;1687182;83;26042;-86
2021/08/18 09:19:17;;;;;;;9.15;6.15;;;;;;;23.64;52.92;97061.40;1673424;84;25505;-86
2021/08/18 09:21:44;;;;;;;9.53;6.53;;;;;;;23.65;52.85;97056.97;1674725;84;25198;-90
2021/08/18 09:24:20;;;;;;;7.85;6.10;;;;;;;23.49;52.38;97057.50;1683317;83;25723;-88
2021/08/18 09:27:09;;;;;;;9.10;6.10;;;;;;;23.20;52.04;97052.20;1689987;83;25896;-86
2021/08/18 09:29:46;;;;;;;10.03;6.40;;;;;;;22.94;51.80;97061.45;1688957;83;27831;-87
2021/08/18 09:32:27;;;;;;;9.25;6.10;;;;;;;22.47;52.06;97060.98;1675205;84;26210;-89
2021/08/18 09:35:02;;;;;;;7.67;6.22;;;;;;;22.22;52.43;97063.50;1680231;84;25596;-87
2021/08/18 09:37:36;;;;;;;10.38;5.85;;;;;;;22.22;52.41;97063.50;1683731;83;25709;-88
2021/08/18 09:40:22;;;;;;;7.53;5.75;;;;;;;22.23;52.71;97058.27;1700000;83;25502;-91
2021/08/18 09:42:51;;;;;;;11.30;5.80;;;;;;;22.34;53.10;97055.65;1661407;85;27173;-92
2021/08/18 09:45:32;;;;;;;9.03;6.40;;;;;;;22.50;52.86;97059.84;1680002;84;25526;-87
2021/08/18 09:48:17;;;;;;;9.25;6.78;;;;;;;22.61;52.45;97053.64;1687571;83;25553;-87
2021/08/18 09:51:03;;;;;;;9.70;7.10;;;;;;;22.30;52.27;97027.69;1663382;83;25574;-87
2021/08/18 09:53:39;;;;;;;12.15;7.00;;;;;;;21.77;51.73;97058.78;1664599;85;25688;-87
2021/08/18 09:56:12;;;;;;;8.35;6.62;;;;;;;21.26;51.96;97058.46;1668027;84;27396;-90
2021/08/18 09:58:55;;;;;;;9.38;7.10;;;;;;;20.85;52.75;97063.44;1642155;85;25483;-87
2021/08/18 10:01:24;;;;;;;9.75;7.10;;;;;;;20.74;52.96;97063.25;1696531;84;26188;-88
2021/08/18 10:04:05;;;;;;;;;;;;;;;;;;;;;
2021/08/18 10:06:31;;;;;;;12.90;7.03;;;;;;;20.41;52.67;97062.88;1690321;83;26205;-87
2021/08/18 10:09:03;;;;;;;10.53;7.28;;;;;;;19.93;53.84;97067.16;1695124;83;27337;-87
2021/08/18 10:11:30;;;;;;;10.18;7.20;;;;;;;19.93;53.84;97067.16;1691289;83;25562;-91
2021/08/18 10:14:02;;;;;;;9.48;7.08;;;;;;;19.70;53.80;97043.95;1695459;83;25672;-87
2021/08/18 10:16:31;;;;;;;;;;;;;;;19.82;53.73;97064.73;1680790;83;26115;-87
2021/08/18 10:19:08;;;;;;;14.75;7.00;;;;;;;19.64;53.69;97044.27;1671563;84;25818;-89
2021/08/18 10:21:35;;;;;;;11.38;7.72;;;;;;;19.75;53.95;97065.86;1691315;84;28934;-87
2021/08/18 10:24:05;;;;;;;11.95;7.67;;;;;;;19.59;53.93;97043.72;1696370;83;25591;-87
2021/08/18 10:26:40;;;;;;;13.65;7.78;;;;;;;19.65;54.82;97064.52;1693506;83;25496;-87
2021/08/18 10:29:12;;;;;;;10.18;7.47;;;;;;;19.63;54.57;97060.42;1695728;83;26028;-86
2021/08/18 10:31:49;;;;;;;15.90;7.72;;;;;;;19.73;54.40;97063.95;1695614;83;25205;-87
2021/08/18 10:34:54;;;;;;;11.43;7.60;;;;;;;19.62;53.67;97060.14;1678075;83;27372;-86
2021/08/18 10:37:28;;;;;;;10.80;6.60;;;;;;;19.60;53.43;97053.58;1584322;87;25742;-86
2021/08/18 10:40:04;;;;;;;10.10;6.75;;;;;;;19.67;53.57;97030.02;1608153;87;25560;-87
2021/08/18 10:42:41;;;;;;;10.58;6.78;;;;;;;19.70;53.57;97053.54;1584953;87;25518;-91
2021/08/18 10:45:34;;;;;;;9.85;7.00;;;;;;;19.80;53.06;97054.63;1601454;88;25334;-86
2021/08/18 10:48:03;;;;;;;10.23;6.53;;;;;;;19.67;53.10;97056.86;1610137;87;27445;-88
2021/08/18 10:50:45;;;;;;;9.35;6.67;;;;;;;19.64;53.46;97054.67;1589545;88;25319;-87
2021/08/18 10:53:34;;;;;;;12.00;7.03;;;;;;;19.68;52.64;97058.47;1586399;88;25722;-87
2021/08/18 10:56:22;;;;;;;12.60;7.20;;;;;;;19.68;52.80;97052.20;1587223;89;26300;-87
2021/08/18 10:58:51;;;;;;;13.83;7.08;;;;;;;19.61;52.70;97055.77;1566875;90;25361;-87
2021/08/18 11:01:45;;;;;;;10.30;7.10;;;;;;;19.61;52.62;97064.80;1580043;90;27890;-86
2021/08/18 11:04:47;;;;;;;10.63;7.87;;;;;;;19.59;52.83;97062.88;1586457;88;25544;-88
2021/08/18 11:07:26;;;;;;;;;;;;;;;;;;;;;
2021/08/18 11:10:00;;;;;;;10.53;6.92;;;;;;;19.72;53.38;97052.72;1562315;90;25748;-86
2021/08/18 11:12:54;;;;;;;10.88;7.42;;;;;;;19.98;53.44;97051.27;1583456;90;25553;-85
2021/08/18 11:15:35;;;;;;;10.60;7.42;;;;;;;20.08;53.51;97047.94;1548133;91;27416;-86
2021/08/18 11:18:06;;;;;;;9.83;6.97;;;;;;;20.08;53.51;97047.94;1552794;90;25915;-86
2021/08/18 11:20:32;;;;;;;10.38;6.85;;;;;;;20.35;52.80;97047.56;1584933;90;25700;-85
2021/08/18 11:23:05;;;;;;;11.20;7.90;;;;;;;20.63;52.57;97049.33;1582885;90;26290;-87
2021/08/18 11:25:43;;;;;;;12.95;7.75;;;;;;;20.65;52.22;97045.18;1565607;90;26092;-86
2021/08/18 11:28:22;;;;;;;9.83;7.90;;;;;;;20.78;52.05;97043.17;1567374;90;27837;-86
2021/08/18 11:31:05;;;;;;;10.58;7.55;;;;;;;20.96;51.72;97044.97;1559940;90;26125;-85
2021/08/18 11:33:33;;;;;;;11.38;7.75;;;;;;;21.13;51.58;97045.40;1618556;84;25619;-86
2021/08/18 11:36:14;;;;;;;9.20;6.28;;;;;;;21.12;50.96;97029.48;1659377;84;26182;-86
2021/08/18 11:38:42;;;;;;;8.83;6.30;;;;;;;21.12;50.96;97029.48;1637013;85;25592;-86
2021/08/18 11:41:08;;;;;;;9.95;6.92;;;;;;;21.44;51.10;97040.46;1633063;87;27867;-86
2021/08/18 11:43:43;;;;;;;9.98;7.37;;;;;;;21.63;51.26;97044.66;1681616;83;25575;-87
2021/08/18 11:46:15;;;;;;;10.15;7.17;;;;;;;21.77;50.54;97044.23;1679688;83;25850;-86
2021/08/18 11:48:42;;;;;;;11.57;7.08;;;;;;;21.69;50.36;97026.47;1680621;83;25533;-87